sensor_id;sensor_type;location;lat;lon;timestamp;temperature;humidity
7384;DHT22;3733;47.994;8.820;2022-08-11T00:00:56;15.80;57.70
7384;DHT22;3733;47.994;8.820;2022-08-11T00:03:22;15.80;57.80
7384;DHT22;3733;47.994;8.820;2022-08-11T00:05:52;15.80;57.90
7384;DHT22;3733;47.994;8.820;2022-08-11T00:08:27;15.70;58.30
7384;DHT22;3733;47.994;8.820;2022-08-11T00:11:03;15.70;58.20
7384;DHT22;3733;47.994;8.820;2022-08-11T00:13:36;15.70;58.30
7384;DHT22;3733;47.994;8.820;2022-08-11T00:16:04;15.70;58.50
7384;DHT22;3733;47.994;8.820;2022-08-11T00:18:40;15.70;58.40
7384;DHT22;3733;47.994;8.820;2022-08-11T00:21:07;15.70;58.30
7384;DHT22;3733;47.994;8.820;2022-08-11T00:23:40;15.70;58.40
7384;DHT22;3733;47.994;8.820;2022-08-11T00:26:06;15.70;58.80
7384;DHT22;3733;47.994;8.820;2022-08-11T00:28:34;15.70;58.80
7384;DHT22;3733;47.994;8.820;2022-08-11T00:31:05;15.70;58.70
7384;DHT22;3733;47.994;8.820;2022-08-11T00:33:42;15.70;58.90
7384;DHT22;3733;47.994;8.820;2022-08-11T00:36:12;15.70;59.20
7384;DHT22;3733;47.994;8.820;2022-08-11T00:38:40;15.60;59.40
7384;DHT22;3733;47.994;8.820;2022-08-11T00:44:06;15.60;60.00
7384;DHT22;3733;47.994;8.820;2022-08-11T00:49:47;15.60;59.70
7384;DHT22;3733;47.994;8.820;2022-08-11T01:01:04;15.50;59.50
7384;DHT22;3733;47.994;8.820;2022-08-11T01:22:17;15.50;59.40
7384;DHT22;3733;47.994;8.820;2022-08-11T01:28:08;15.50;59.70
7384;DHT22;3733;47.994;8.820;2022-08-11T01:48:13;15.30;60.40
7384;DHT22;3733;47.994;8.820;2022-08-11T01:59:04;15.30;61.00
7384;DHT22;3733;47.994;8.820;2022-08-11T02:02:06;15.30;61.20
7384;DHT22;3733;47.994;8.820;2022-08-11T02:04:40;15.30;61.20
7384;DHT22;3733;47.994;8.820;2022-08-11T02:07:12;15.30;61.30
7384;DHT22;3733;47.994;8.820;2022-08-11T02:12:58;15.30;61.60
7384;DHT22;3733;47.994;8.820;2022-08-11T02:15:38;15.20;61.80
7384;DHT22;3733;47.994;8.820;2022-08-11T02:18:32;15.20;62.10
7384;DHT22;3733;47.994;8.820;2022-08-11T02:21:28;15.20;62.20
7384;DHT22;3733;47.994;8.820;2022-08-11T02:24:19;15.20;62.20
7384;DHT22;3733;47.994;8.820;2022-08-11T02:27:16;15.20;62.50
7384;DHT22;3733;47.994;8.820;2022-08-11T02:30:00;15.20;62.80
7384;DHT22;3733;47.994;8.820;2022-08-11T02:35:56;15.10;63.20
7384;DHT22;3733;47.994;8.820;2022-08-11T02:38:52;15.10;63.10
7384;DHT22;3733;47.994;8.820;2022-08-11T02:41:43;15.10;63.50
7384;DHT22;3733;47.994;8.820;2022-08-11T02:49:57;15.10;63.90
7384;DHT22;3733;47.994;8.820;2022-08-11T02:58:25;15.10;65.10
7384;DHT22;3733;47.994;8.820;2022-08-11T03:01:17;15.10;65.10
7384;DHT22;3733;47.994;8.820;2022-08-11T03:04:02;15.10;65.20
7384;DHT22;3733;47.994;8.820;2022-08-11T03:09:43;15.10;65.60
7384;DHT22;3733;47.994;8.820;2022-08-11T03:12:17;15.10;66.10
7384;DHT22;3733;47.994;8.820;2022-08-11T03:15:48;15.10;66.10
7384;DHT22;3733;47.994;8.820;2022-08-11T03:18:37;15.10;65.70
7384;DHT22;3733;47.994;8.820;2022-08-11T03:23:54;15.10;66.40
7384;DHT22;3733;47.994;8.820;2022-08-11T03:31:51;15.00;67.80
7384;DHT22;3733;47.994;8.820;2022-08-11T03:34:24;15.00;68.00
7384;DHT22;3733;47.994;8.820;2022-08-11T03:40:10;14.80;68.90
7384;DHT22;3733;47.994;8.820;2022-08-11T03:42:57;14.80;68.80
7384;DHT22;3733;47.994;8.820;2022-08-11T03:45:34;14.70;69.50
7384;DHT22;3733;47.994;8.820;2022-08-11T03:50:50;14.60;69.80
7384;DHT22;3733;47.994;8.820;2022-08-11T04:02:12;14.50;72.60
7384;DHT22;3733;47.994;8.820;2022-08-11T04:49:34;14.20;78.50
7384;DHT22;3733;47.994;8.820;2022-08-11T05:13:02;14.60;79.10
7384;DHT22;3733;47.994;8.820;2022-08-11T05:15:53;14.70;80.60
7384;DHT22;3733;47.994;8.820;2022-08-11T05:21:32;14.80;78.70
7384;DHT22;3733;47.994;8.820;2022-08-11T05:24:29;14.80;78.30
7384;DHT22;3733;47.994;8.820;2022-08-11T05:27:14;14.90;78.60
7384;DHT22;3733;47.994;8.820;2022-08-11T05:30:08;15.00;78.20
7384;DHT22;3733;47.994;8.820;2022-08-11T05:33:05;15.10;76.20
7384;DHT22;3733;47.994;8.820;2022-08-11T05:35:59;15.30;75.40
7384;DHT22;3733;47.994;8.820;2022-08-11T05:38:29;15.40;74.50
7384;DHT22;3733;47.994;8.820;2022-08-11T05:41:19;15.60;73.60
7384;DHT22;3733;47.994;8.820;2022-08-11T05:44:05;15.70;71.60
7384;DHT22;3733;47.994;8.820;2022-08-11T05:46:49;15.90;69.60
7384;DHT22;3733;47.994;8.820;2022-08-11T05:49:34;16.10;68.50
7384;DHT22;3733;47.994;8.820;2022-08-11T05:52:24;16.20;68.10
7384;DHT22;3733;47.994;8.820;2022-08-11T05:55:10;16.40;67.20
7384;DHT22;3733;47.994;8.820;2022-08-11T05:58:02;16.50;66.40
7384;DHT22;3733;47.994;8.820;2022-08-11T06:00:29;16.70;65.60
7384;DHT22;3733;47.994;8.820;2022-08-11T06:02:58;16.90;65.20
7384;DHT22;3733;47.994;8.820;2022-08-11T06:05:36;17.00;63.30
7384;DHT22;3733;47.994;8.820;2022-08-11T06:08:04;17.10;62.80
7384;DHT22;3733;47.994;8.820;2022-08-11T06:12:58;17.30;61.90
7384;DHT22;3733;47.994;8.820;2022-08-11T06:15:27;17.40;61.40
7384;DHT22;3733;47.994;8.820;2022-08-11T06:17:54;17.50;61.60
7384;DHT22;3733;47.994;8.820;2022-08-11T06:20:21;17.60;61.50
7384;DHT22;3733;47.994;8.820;2022-08-11T06:22:56;17.80;60.70
7384;DHT22;3733;47.994;8.820;2022-08-11T06:25:29;18.00;59.70
7384;DHT22;3733;47.994;8.820;2022-08-11T06:27:55;18.20;58.80
7384;DHT22;3733;47.994;8.820;2022-08-11T06:33:07;18.50;57.40
7384;DHT22;3733;47.994;8.820;2022-08-11T06:38:19;18.60;57.20
7384;DHT22;3733;47.994;8.820;2022-08-11T06:41:02;18.70;56.70
7384;DHT22;3733;47.994;8.820;2022-08-11T06:46:45;18.80;56.30
7384;DHT22;3733;47.994;8.820;2022-08-11T06:49:14;18.80;56.20
7384;DHT22;3733;47.994;8.820;2022-08-11T06:52:10;18.90;55.90
7384;DHT22;3733;47.994;8.820;2022-08-11T06:54:47;19.00;55.60
7384;DHT22;3733;47.994;8.820;2022-08-11T06:57:17;19.10;55.30
7384;DHT22;3733;47.994;8.820;2022-08-11T07:00:03;19.10;55.10
7384;DHT22;3733;47.994;8.820;2022-08-11T07:02:51;19.30;54.70
7384;DHT22;3733;47.994;8.820;2022-08-11T07:11:54;19.50;54.40
7384;DHT22;3733;47.994;8.820;2022-08-11T07:14:56;19.60;54.70
7384;DHT22;3733;47.994;8.820;2022-08-11T07:17:49;19.60;54.20
7384;DHT22;3733;47.994;8.820;2022-08-11T07:20:37;19.70;54.10
7384;DHT22;3733;47.994;8.820;2022-08-11T07:23:24;19.80;54.10
7384;DHT22;3733;47.994;8.820;2022-08-11T07:26:09;19.90;54.20
7384;DHT22;3733;47.994;8.820;2022-08-11T07:28:55;20.00;53.80
7384;DHT22;3733;47.994;8.820;2022-08-11T07:31:34;20.10;53.40
7384;DHT22;3733;47.994;8.820;2022-08-11T07:36:49;20.30;53.40
7384;DHT22;3733;47.994;8.820;2022-08-11T07:39:26;20.40;53.10
7384;DHT22;3733;47.994;8.820;2022-08-11T07:41:54;20.50;52.80
7384;DHT22;3733;47.994;8.820;2022-08-11T07:44:23;20.50;52.80
7384;DHT22;3733;47.994;8.820;2022-08-11T07:46:53;20.60;52.70
7384;DHT22;3733;47.994;8.820;2022-08-11T07:49:39;20.60;52.60
7384;DHT22;3733;47.994;8.820;2022-08-11T07:52:29;20.70;52.70
7384;DHT22;3733;47.994;8.820;2022-08-11T07:54:59;20.80;52.60
7384;DHT22;3733;47.994;8.820;2022-08-11T07:57:27;20.90;52.50
7384;DHT22;3733;47.994;8.820;2022-08-11T08:00:13;21.00;52.60
7384;DHT22;3733;47.994;8.820;2022-08-11T08:02:58;21.10;52.50
7384;DHT22;3733;47.994;8.820;2022-08-11T08:05:45;21.20;52.20
7384;DHT22;3733;47.994;8.820;2022-08-11T08:08:30;21.20;52.00
7384;DHT22;3733;47.994;8.820;2022-08-11T08:11:15;21.30;52.00
7384;DHT22;3733;47.994;8.820;2022-08-11T08:14:00;21.40;52.00
7384;DHT22;3733;47.994;8.820;2022-08-11T08:16:45;21.50;51.70
7384;DHT22;3733;47.994;8.820;2022-08-11T08:19:30;21.70;51.70
7384;DHT22;3733;47.994;8.820;2022-08-11T08:21:57;21.80;51.90
7384;DHT22;3733;47.994;8.820;2022-08-11T08:24:24;21.90;51.90
7384;DHT22;3733;47.994;8.820;2022-08-11T08:26:50;21.90;51.70
7384;DHT22;3733;47.994;8.820;2022-08-11T08:29:36;22.00;52.10
7384;DHT22;3733;47.994;8.820;2022-08-11T08:32:20;22.20;51.50
7384;DHT22;3733;47.994;8.820;2022-08-11T08:34:49;22.30;51.20
7384;DHT22;3733;47.994;8.820;2022-08-11T08:37:19;22.30;50.80
7384;DHT22;3733;47.994;8.820;2022-08-11T08:39:46;22.40;50.40
7384;DHT22;3733;47.994;8.820;2022-08-11T08:42:17;22.50;50.10
7384;DHT22;3733;47.994;8.820;2022-08-11T08:44:46;22.50;50.30
7384;DHT22;3733;47.994;8.820;2022-08-11T08:47:17;22.60;50.60
7384;DHT22;3733;47.994;8.820;2022-08-11T08:49:49;22.70;50.60
7384;DHT22;3733;47.994;8.820;2022-08-11T08:52:19;22.80;50.20
7384;DHT22;3733;47.994;8.820;2022-08-11T08:54:48;22.90;50.30
7384;DHT22;3733;47.994;8.820;2022-08-11T08:57:16;23.00;50.00
7384;DHT22;3733;47.994;8.820;2022-08-11T08:59:46;23.10;49.70
7384;DHT22;3733;47.994;8.820;2022-08-11T09:02:13;23.20;48.90
7384;DHT22;3733;47.994;8.820;2022-08-11T09:04:40;23.30;48.70
7384;DHT22;3733;47.994;8.820;2022-08-11T09:07:10;23.30;48.40
7384;DHT22;3733;47.994;8.820;2022-08-11T09:09:45;23.50;48.80
7384;DHT22;3733;47.994;8.820;2022-08-11T09:12:11;23.60;48.80
7384;DHT22;3733;47.994;8.820;2022-08-11T09:14:40;23.70;49.10
7384;DHT22;3733;47.994;8.820;2022-08-11T09:17:26;23.80;48.20
7384;DHT22;3733;47.994;8.820;2022-08-11T09:20:03;23.90;48.00
7384;DHT22;3733;47.994;8.820;2022-08-11T09:22:36;24.00;48.40
7384;DHT22;3733;47.994;8.820;2022-08-11T09:25:25;24.10;48.40
7384;DHT22;3733;47.994;8.820;2022-08-11T09:28:10;24.30;48.00
7384;DHT22;3733;47.994;8.820;2022-08-11T09:30:36;24.30;47.10
7384;DHT22;3733;47.994;8.820;2022-08-11T09:33:06;24.40;47.00
7384;DHT22;3733;47.994;8.820;2022-08-11T09:35:37;24.40;47.30
7384;DHT22;3733;47.994;8.820;2022-08-11T09:38:04;24.50;47.20
7384;DHT22;3733;47.994;8.820;2022-08-11T09:40:50;24.60;46.70
7384;DHT22;3733;47.994;8.820;2022-08-11T09:43:17;24.60;46.00
7384;DHT22;3733;47.994;8.820;2022-08-11T09:46:03;24.60;45.80
7384;DHT22;3733;47.994;8.820;2022-08-11T09:48:42;24.70;45.80
7384;DHT22;3733;47.994;8.820;2022-08-11T09:51:09;24.70;45.50
7384;DHT22;3733;47.994;8.820;2022-08-11T09:53:38;24.80;45.60
7384;DHT22;3733;47.994;8.820;2022-08-11T09:56:10;24.80;45.80
7384;DHT22;3733;47.994;8.820;2022-08-11T09:58:56;24.90;46.00
7384;DHT22;3733;47.994;8.820;2022-08-11T10:01:25;25.00;46.70
7384;DHT22;3733;47.994;8.820;2022-08-11T10:04:06;25.10;46.80
7384;DHT22;3733;47.994;8.820;2022-08-11T10:06:35;25.20;46.60
7384;DHT22;3733;47.994;8.820;2022-08-11T10:09:22;25.30;46.70
7384;DHT22;3733;47.994;8.820;2022-08-11T10:11:48;25.40;46.50
7384;DHT22;3733;47.994;8.820;2022-08-11T10:14:17;25.50;46.40
7384;DHT22;3733;47.994;8.820;2022-08-11T10:17:07;25.60;45.80
7384;DHT22;3733;47.994;8.820;2022-08-11T10:19:37;25.70;45.20
7384;DHT22;3733;47.994;8.820;2022-08-11T10:22:04;25.80;45.10
7384;DHT22;3733;47.994;8.820;2022-08-11T10:24:50;25.90;45.50
7384;DHT22;3733;47.994;8.820;2022-08-11T10:27:35;25.90;46.20
7384;DHT22;3733;47.994;8.820;2022-08-11T10:30:01;26.00;44.70
7384;DHT22;3733;47.994;8.820;2022-08-11T10:32:46;26.10;44.00
7384;DHT22;3733;47.994;8.820;2022-08-11T10:35:33;26.10;43.80
7384;DHT22;3733;47.994;8.820;2022-08-11T10:37:59;26.20;44.40
7384;DHT22;3733;47.994;8.820;2022-08-11T10:40:25;26.20;44.60
7384;DHT22;3733;47.994;8.820;2022-08-11T10:42:54;26.30;45.20
7384;DHT22;3733;47.994;8.820;2022-08-11T10:45:34;26.40;45.60
7384;DHT22;3733;47.994;8.820;2022-08-11T10:48:20;26.50;44.10
7384;DHT22;3733;47.994;8.820;2022-08-11T10:50:47;26.60;44.00
7384;DHT22;3733;47.994;8.820;2022-08-11T10:53:35;26.60;44.60
7384;DHT22;3733;47.994;8.820;2022-08-11T10:56:20;26.70;45.00
7384;DHT22;3733;47.994;8.820;2022-08-11T10:59:07;26.80;44.20
7384;DHT22;3733;47.994;8.820;2022-08-11T11:01:37;26.90;44.00
7384;DHT22;3733;47.994;8.820;2022-08-11T11:04:38;26.90;43.50
7384;DHT22;3733;47.994;8.820;2022-08-11T11:07:12;27.10;43.80
7384;DHT22;3733;47.994;8.820;2022-08-11T11:09:47;27.20;43.70
7384;DHT22;3733;47.994;8.820;2022-08-11T11:12:23;27.30;43.90
7384;DHT22;3733;47.994;8.820;2022-08-11T11:15:08;27.30;43.60
7384;DHT22;3733;47.994;8.820;2022-08-11T11:17:58;27.50;42.80
7384;DHT22;3733;47.994;8.820;2022-08-11T11:23:13;27.60;41.60
7384;DHT22;3733;47.994;8.820;2022-08-11T11:37:41;28.00;40.90
7384;DHT22;3733;47.994;8.820;2022-08-11T11:40:15;28.10;40.30
7384;DHT22;3733;47.994;8.820;2022-08-11T11:42:44;28.20;39.50
7384;DHT22;3733;47.994;8.820;2022-08-11T11:45:14;28.30;40.30
7384;DHT22;3733;47.994;8.820;2022-08-11T11:47:40;28.40;40.10
7384;DHT22;3733;47.994;8.820;2022-08-11T11:50:07;28.50;39.60
7384;DHT22;3733;47.994;8.820;2022-08-11T11:52:33;28.60;39.60
7384;DHT22;3733;47.994;8.820;2022-08-11T11:54:59;28.70;39.40
7384;DHT22;3733;47.994;8.820;2022-08-11T11:57:26;28.80;40.50
7384;DHT22;3733;47.994;8.820;2022-08-11T12:00:12;29.00;40.50
7384;DHT22;3733;47.994;8.820;2022-08-11T12:02:58;29.10;39.70
7384;DHT22;3733;47.994;8.820;2022-08-11T12:05:25;29.30;39.10
7384;DHT22;3733;47.994;8.820;2022-08-11T12:07:52;29.40;39.50
7384;DHT22;3733;47.994;8.820;2022-08-11T12:13:10;29.60;38.30
7384;DHT22;3733;47.994;8.820;2022-08-11T12:15:57;29.70;38.60
7384;DHT22;3733;47.994;8.820;2022-08-11T12:18:33;29.80;38.30
7384;DHT22;3733;47.994;8.820;2022-08-11T12:21:00;29.90;36.50
7384;DHT22;3733;47.994;8.820;2022-08-11T12:23:27;30.00;36.50
7384;DHT22;3733;47.994;8.820;2022-08-11T12:26:13;30.10;37.20
7384;DHT22;3733;47.994;8.820;2022-08-11T12:28:59;30.30;35.80
7384;DHT22;3733;47.994;8.820;2022-08-11T12:31:28;30.40;36.10
7384;DHT22;3733;47.994;8.820;2022-08-11T12:34:03;30.50;35.30
7384;DHT22;3733;47.994;8.820;2022-08-11T12:36:31;30.60;35.00
7384;DHT22;3733;47.994;8.820;2022-08-11T12:38:58;30.70;35.00
7384;DHT22;3733;47.994;8.820;2022-08-11T12:41:25;30.80;34.80
7384;DHT22;3733;47.994;8.820;2022-08-11T12:44:10;30.80;35.40
7384;DHT22;3733;47.994;8.820;2022-08-11T12:46:57;30.90;35.70
7384;DHT22;3733;47.994;8.820;2022-08-11T12:49:25;31.00;34.20
7384;DHT22;3733;47.994;8.820;2022-08-11T12:52:21;31.10;34.90
7384;DHT22;3733;47.994;8.820;2022-08-11T12:57:42;31.20;34.90
7384;DHT22;3733;47.994;8.820;2022-08-11T13:00:29;31.30;34.40
7384;DHT22;3733;47.994;8.820;2022-08-11T13:03:17;30.80;34.80
7384;DHT22;3733;47.994;8.820;2022-08-11T13:06:02;30.50;36.30
7384;DHT22;3733;47.994;8.820;2022-08-11T13:08:32;30.60;36.80
7384;DHT22;3733;47.994;8.820;2022-08-11T13:11:00;30.80;36.60
7384;DHT22;3733;47.994;8.820;2022-08-11T13:13:47;31.10;36.20
7384;DHT22;3733;47.994;8.820;2022-08-11T13:16:14;31.40;35.50
7384;DHT22;3733;47.994;8.820;2022-08-11T13:18:41;31.60;34.30
7384;DHT22;3733;47.994;8.820;2022-08-11T13:21:09;31.80;34.50
7384;DHT22;3733;47.994;8.820;2022-08-11T13:23:37;31.90;33.70
7384;DHT22;3733;47.994;8.820;2022-08-11T13:26:03;32.00;33.50
7384;DHT22;3733;47.994;8.820;2022-08-11T13:28:30;32.20;32.40
7384;DHT22;3733;47.994;8.820;2022-08-11T13:30:56;32.30;31.40
7384;DHT22;3733;47.994;8.820;2022-08-11T13:33:47;32.40;31.40
7384;DHT22;3733;47.994;8.820;2022-08-11T13:36:21;32.50;30.60
7384;DHT22;3733;47.994;8.820;2022-08-11T13:38:49;32.60;30.10
7384;DHT22;3733;47.994;8.820;2022-08-11T13:41:16;32.70;31.10
7384;DHT22;3733;47.994;8.820;2022-08-11T13:44:01;32.80;31.70
7384;DHT22;3733;47.994;8.820;2022-08-11T13:46:27;32.80;30.00
7384;DHT22;3733;47.994;8.820;2022-08-11T13:48:54;32.60;30.20
7384;DHT22;3733;47.994;8.820;2022-08-11T13:51:23;32.60;32.10
7384;DHT22;3733;47.994;8.820;2022-08-11T13:53:57;32.60;31.50
7384;DHT22;3733;47.994;8.820;2022-08-11T13:56:24;32.80;31.00
7384;DHT22;3733;47.994;8.820;2022-08-11T13:58:51;32.90;31.30
7384;DHT22;3733;47.994;8.820;2022-08-11T14:01:19;33.00;31.40
7384;DHT22;3733;47.994;8.820;2022-08-11T14:03:46;33.10;31.70
7384;DHT22;3733;47.994;8.820;2022-08-11T14:06:14;33.20;31.90
7384;DHT22;3733;47.994;8.820;2022-08-11T14:08:42;33.20;31.00
7384;DHT22;3733;47.994;8.820;2022-08-11T14:11:10;33.10;31.20
7384;DHT22;3733;47.994;8.820;2022-08-11T14:13:57;33.20;31.00
7384;DHT22;3733;47.994;8.820;2022-08-11T14:16:29;33.20;30.30
7384;DHT22;3733;47.994;8.820;2022-08-11T14:19:04;33.20;30.00
7384;DHT22;3733;47.994;8.820;2022-08-11T14:21:36;33.30;29.90
7384;DHT22;3733;47.994;8.820;2022-08-11T14:24:21;33.20;29.90
7384;DHT22;3733;47.994;8.820;2022-08-11T14:26:48;33.30;30.50
7384;DHT22;3733;47.994;8.820;2022-08-11T14:29:20;33.40;30.50
7384;DHT22;3733;47.994;8.820;2022-08-11T14:31:51;33.40;30.60
7384;DHT22;3733;47.994;8.820;2022-08-11T14:34:20;33.50;30.20
7384;DHT22;3733;47.994;8.820;2022-08-11T14:36:51;33.50;30.00
7384;DHT22;3733;47.994;8.820;2022-08-11T14:39:21;33.50;30.20
7384;DHT22;3733;47.994;8.820;2022-08-11T14:41:52;33.60;29.70
7384;DHT22;3733;47.994;8.820;2022-08-11T14:44:37;33.60;29.60
7384;DHT22;3733;47.994;8.820;2022-08-11T14:47:23;33.50;29.30
7384;DHT22;3733;47.994;8.820;2022-08-11T14:49:50;33.40;29.10
7384;DHT22;3733;47.994;8.820;2022-08-11T14:52:17;33.50;29.90
7384;DHT22;3733;47.994;8.820;2022-08-11T14:54:47;33.60;30.00
7384;DHT22;3733;47.994;8.820;2022-08-11T14:57:35;33.60;29.90
7384;DHT22;3733;47.994;8.820;2022-08-11T15:00:04;33.60;29.20
7384;DHT22;3733;47.994;8.820;2022-08-11T15:02:33;33.60;29.30
7384;DHT22;3733;47.994;8.820;2022-08-11T15:05:18;33.70;29.50
7384;DHT22;3733;47.994;8.820;2022-08-11T15:07:45;33.70;30.00
7384;DHT22;3733;47.994;8.820;2022-08-11T15:10:11;33.70;29.20
7384;DHT22;3733;47.994;8.820;2022-08-11T15:12:39;33.70;28.60
7384;DHT22;3733;47.994;8.820;2022-08-11T15:15:07;33.80;28.50
7384;DHT22;3733;47.994;8.820;2022-08-11T15:17:54;33.80;29.30
7384;DHT22;3733;47.994;8.820;2022-08-11T15:20:20;33.80;28.90
7384;DHT22;3733;47.994;8.820;2022-08-11T15:23:05;33.70;29.20
7384;DHT22;3733;47.994;8.820;2022-08-11T15:25:55;33.80;28.30
7384;DHT22;3733;47.994;8.820;2022-08-11T15:28:26;33.70;28.50
7384;DHT22;3733;47.994;8.820;2022-08-11T15:31:13;33.80;28.60
7384;DHT22;3733;47.994;8.820;2022-08-11T15:33:54;33.80;29.10
7384;DHT22;3733;47.994;8.820;2022-08-11T15:36:41;33.80;29.60
7384;DHT22;3733;47.994;8.820;2022-08-11T15:39:30;33.80;29.30
7384;DHT22;3733;47.994;8.820;2022-08-11T15:44:54;33.60;29.30
7384;DHT22;3733;47.994;8.820;2022-08-11T15:47:51;33.50;28.80
7384;DHT22;3733;47.994;8.820;2022-08-11T15:50:26;33.40;29.00
7384;DHT22;3733;47.994;8.820;2022-08-11T15:53:09;33.50;29.10
7384;DHT22;3733;47.994;8.820;2022-08-11T15:55:37;33.50;28.90
7384;DHT22;3733;47.994;8.820;2022-08-11T15:58:06;33.50;29.30
7384;DHT22;3733;47.994;8.820;2022-08-11T16:00:52;33.40;29.30
7384;DHT22;3733;47.994;8.820;2022-08-11T16:03:51;33.30;29.80
7384;DHT22;3733;47.994;8.820;2022-08-11T16:06:49;33.20;29.00
7384;DHT22;3733;47.994;8.820;2022-08-11T16:12:03;32.70;29.50
7384;DHT22;3733;47.994;8.820;2022-08-11T16:14:33;32.40;30.30
7384;DHT22;3733;47.994;8.820;2022-08-11T16:17:20;31.90;30.90
7384;DHT22;3733;47.994;8.820;2022-08-11T16:19:49;31.40;31.00
7384;DHT22;3733;47.994;8.820;2022-08-11T16:22:22;31.00;31.60
7384;DHT22;3733;47.994;8.820;2022-08-11T16:24:57;30.50;32.00
7384;DHT22;3733;47.994;8.820;2022-08-11T16:27:26;30.10;32.60
7384;DHT22;3733;47.994;8.820;2022-08-11T16:29:54;29.70;33.50
7384;DHT22;3733;47.994;8.820;2022-08-11T16:32:21;29.40;33.60
7384;DHT22;3733;47.994;8.820;2022-08-11T16:34:57;29.00;33.20
7384;DHT22;3733;47.994;8.820;2022-08-11T16:37:43;28.80;33.70
7384;DHT22;3733;47.994;8.820;2022-08-11T16:40:30;28.50;34.60
7384;DHT22;3733;47.994;8.820;2022-08-11T16:42:57;28.20;34.50
7384;DHT22;3733;47.994;8.820;2022-08-11T16:45:43;28.10;35.30
7384;DHT22;3733;47.994;8.820;2022-08-11T16:48:31;27.90;34.70
7384;DHT22;3733;47.994;8.820;2022-08-11T16:50:58;27.70;35.00
7384;DHT22;3733;47.994;8.820;2022-08-11T16:53:28;27.50;35.40
7384;DHT22;3733;47.994;8.820;2022-08-11T16:55:56;27.50;36.00
7384;DHT22;3733;47.994;8.820;2022-08-11T16:58:23;27.30;35.70
7384;DHT22;3733;47.994;8.820;2022-08-11T17:01:08;27.20;36.20
7384;DHT22;3733;47.994;8.820;2022-08-11T17:03:38;27.10;36.70
7384;DHT22;3733;47.994;8.820;2022-08-11T17:06:26;27.00;36.70
7384;DHT22;3733;47.994;8.820;2022-08-11T17:09:10;26.90;37.00
7384;DHT22;3733;47.994;8.820;2022-08-11T17:11:57;26.90;36.80
7384;DHT22;3733;47.994;8.820;2022-08-11T17:14:52;26.70;36.60
7384;DHT22;3733;47.994;8.820;2022-08-11T17:17:32;26.70;36.50
7384;DHT22;3733;47.994;8.820;2022-08-11T17:20:05;26.60;36.90
7384;DHT22;3733;47.994;8.820;2022-08-11T17:22:37;26.50;37.20
7384;DHT22;3733;47.994;8.820;2022-08-11T17:25:23;26.50;37.20
7384;DHT22;3733;47.994;8.820;2022-08-11T17:27:53;26.40;37.00
7384;DHT22;3733;47.994;8.820;2022-08-11T17:30:19;26.30;37.30
7384;DHT22;3733;47.994;8.820;2022-08-11T17:32:51;26.30;37.60
7384;DHT22;3733;47.994;8.820;2022-08-11T17:35:38;26.20;37.90
7384;DHT22;3733;47.994;8.820;2022-08-11T17:38:17;26.10;37.90
7384;DHT22;3733;47.994;8.820;2022-08-11T17:40:50;26.10;38.20
7384;DHT22;3733;47.994;8.820;2022-08-11T17:43:35;26.00;38.40
7384;DHT22;3733;47.994;8.820;2022-08-11T17:46:20;25.90;39.10
7384;DHT22;3733;47.994;8.820;2022-08-11T17:49:06;25.80;39.40
7384;DHT22;3733;47.994;8.820;2022-08-11T17:51:33;25.70;39.30
7384;DHT22;3733;47.994;8.820;2022-08-11T17:54:20;25.60;39.00
7384;DHT22;3733;47.994;8.820;2022-08-11T17:57:06;25.60;39.20
7384;DHT22;3733;47.994;8.820;2022-08-11T17:59:52;25.50;39.50
7384;DHT22;3733;47.994;8.820;2022-08-11T18:02:33;25.40;39.60
7384;DHT22;3733;47.994;8.820;2022-08-11T18:05:20;25.40;40.20
7384;DHT22;3733;47.994;8.820;2022-08-11T18:07:48;25.30;40.30
7384;DHT22;3733;47.994;8.820;2022-08-11T18:10:34;25.20;40.40
7384;DHT22;3733;47.994;8.820;2022-08-11T18:13:21;25.10;41.00
7384;DHT22;3733;47.994;8.820;2022-08-11T18:16:07;25.10;41.30
7384;DHT22;3733;47.994;8.820;2022-08-11T18:18:52;25.00;41.50
7384;DHT22;3733;47.994;8.820;2022-08-11T18:21:37;24.90;41.70
7384;DHT22;3733;47.994;8.820;2022-08-11T18:24:26;24.70;41.80
7384;DHT22;3733;47.994;8.820;2022-08-11T18:27:13;24.60;41.80
7384;DHT22;3733;47.994;8.820;2022-08-11T18:30:00;24.50;42.30
7384;DHT22;3733;47.994;8.820;2022-08-11T18:32:47;24.40;42.80
7384;DHT22;3733;47.994;8.820;2022-08-11T18:35:34;24.20;42.90
7384;DHT22;3733;47.994;8.820;2022-08-11T18:38:19;24.00;43.40
7384;DHT22;3733;47.994;8.820;2022-08-11T18:41:06;23.90;43.70
7384;DHT22;3733;47.994;8.820;2022-08-11T18:43:54;23.80;44.00
7384;DHT22;3733;47.994;8.820;2022-08-11T18:46:42;23.60;44.30
7384;DHT22;3733;47.994;8.820;2022-08-11T18:49:33;23.50;45.30
7384;DHT22;3733;47.994;8.820;2022-08-11T18:52:19;23.40;44.80
7384;DHT22;3733;47.994;8.820;2022-08-11T18:55:08;23.30;45.00
7384;DHT22;3733;47.994;8.820;2022-08-11T18:57:55;23.20;45.30
7384;DHT22;3733;47.994;8.820;2022-08-11T19:00:41;23.10;45.10
7384;DHT22;3733;47.994;8.820;2022-08-11T19:03:26;23.00;45.10
7384;DHT22;3733;47.994;8.820;2022-08-11T19:06:12;22.90;45.30
7384;DHT22;3733;47.994;8.820;2022-08-11T19:08:59;22.80;45.50
7384;DHT22;3733;47.994;8.820;2022-08-11T19:11:44;22.80;45.30
7384;DHT22;3733;47.994;8.820;2022-08-11T19:14:30;22.70;45.70
7384;DHT22;3733;47.994;8.820;2022-08-11T19:17:16;22.60;46.10
7384;DHT22;3733;47.994;8.820;2022-08-11T19:20:04;22.50;46.00
7384;DHT22;3733;47.994;8.820;2022-08-11T19:22:50;22.40;46.30
7384;DHT22;3733;47.994;8.820;2022-08-11T19:25:37;22.30;46.80
7384;DHT22;3733;47.994;8.820;2022-08-11T19:28:22;22.20;47.10
7384;DHT22;3733;47.994;8.820;2022-08-11T19:31:08;22.10;47.30
7384;DHT22;3733;47.994;8.820;2022-08-11T19:33:53;21.90;47.60
7384;DHT22;3733;47.994;8.820;2022-08-11T19:36:38;21.70;47.70
7384;DHT22;3733;47.994;8.820;2022-08-11T19:39:26;21.60;48.00
7384;DHT22;3733;47.994;8.820;2022-08-11T19:42:11;21.50;48.10
7384;DHT22;3733;47.994;8.820;2022-08-11T19:44:58;21.40;48.40
7384;DHT22;3733;47.994;8.820;2022-08-11T19:47:44;21.30;48.60
7384;DHT22;3733;47.994;8.820;2022-08-11T19:50:30;21.20;48.70
7384;DHT22;3733;47.994;8.820;2022-08-11T19:53:15;21.10;48.90
7384;DHT22;3733;47.994;8.820;2022-08-11T19:56:01;21.10;49.10
7384;DHT22;3733;47.994;8.820;2022-08-11T19:58:46;21.00;49.20
7384;DHT22;3733;47.994;8.820;2022-08-11T20:01:30;21.00;49.50
7384;DHT22;3733;47.994;8.820;2022-08-11T20:04:14;20.90;49.70
7384;DHT22;3733;47.994;8.820;2022-08-11T20:06:59;20.80;49.80
7384;DHT22;3733;47.994;8.820;2022-08-11T20:09:44;20.80;49.90
7384;DHT22;3733;47.994;8.820;2022-08-11T20:12:31;20.70;50.00
7384;DHT22;3733;47.994;8.820;2022-08-11T20:15:17;20.60;50.10
7384;DHT22;3733;47.994;8.820;2022-08-11T20:18:04;20.60;50.80
7384;DHT22;3733;47.994;8.820;2022-08-11T20:20:52;20.50;50.50
7384;DHT22;3733;47.994;8.820;2022-08-11T20:23:40;20.40;50.60
7384;DHT22;3733;47.994;8.820;2022-08-11T20:26:27;20.30;50.70
7384;DHT22;3733;47.994;8.820;2022-08-11T20:29:12;20.20;50.70
7384;DHT22;3733;47.994;8.820;2022-08-11T20:31:57;20.20;50.80
7384;DHT22;3733;47.994;8.820;2022-08-11T20:34:41;20.10;51.00
7384;DHT22;3733;47.994;8.820;2022-08-11T20:37:27;20.00;51.10
7384;DHT22;3733;47.994;8.820;2022-08-11T20:40:12;20.00;51.20
7384;DHT22;3733;47.994;8.820;2022-08-11T20:42:58;20.00;51.50
7384;DHT22;3733;47.994;8.820;2022-08-11T20:45:44;19.90;51.60
7384;DHT22;3733;47.994;8.820;2022-08-11T20:48:31;19.80;51.70
7384;DHT22;3733;47.994;8.820;2022-08-11T20:51:17;19.70;51.80
7384;DHT22;3733;47.994;8.820;2022-08-11T20:54:03;19.70;52.10